createdAt,value
2022-08-12T00:00:15.147Z,95006.31
2022-08-12T00:03:17.653Z,95006.41
2022-08-12T00:06:22.853Z,95004.78
2022-08-12T00:09:26.408Z,95009.00
2022-08-12T00:12:27.440Z,95013.78
2022-08-12T00:15:34.228Z,95016.13
2022-08-12T00:18:34.689Z,95013.75
2022-08-12T00:21:38.084Z,95010.63
2022-08-12T00:24:40.524Z,95012.78
2022-08-12T00:27:44.122Z,95004.34
2022-08-12T00:30:46.282Z,95001.72
2022-08-12T00:33:52.484Z,94991.44
2022-08-12T00:36:53.023Z,94998.47
2022-08-12T00:39:54.122Z,94993.81
2022-08-12T00:42:39.184Z,95002.09
2022-08-12T00:45:22.670Z,94998.19
2022-08-12T00:48:07.605Z,94986.63
2022-08-12T00:50:55.525Z,94997.19
2022-08-12T00:53:39.358Z,94995.94
2022-08-12T00:56:27.362Z,94989.81
2022-08-12T00:59:10.635Z,94996.03
2022-08-12T01:02:10.421Z,94998.41
2022-08-12T01:05:16.862Z,95005.84
2022-08-12T01:08:19.550Z,94991.63
2022-08-12T01:11:20.003Z,95001.09
2022-08-12T01:14:05.225Z,94993.03
2022-08-12T01:16:49.309Z,95000.66
2022-08-12T01:19:34.941Z,95004.56
2022-08-12T01:22:25.899Z,95003.25
2022-08-12T01:25:12.975Z,95008.53
2022-08-12T01:27:58.525Z,95012.69
2022-08-12T01:30:43.936Z,95010.91
2022-08-12T01:33:29.983Z,95007.50
2022-08-12T01:36:14.333Z,95003.72
2022-08-12T01:39:00.293Z,95005.78
2022-08-12T01:41:50.523Z,94999.78
2022-08-12T01:44:38.168Z,95003.19
2022-08-12T01:47:33.831Z,94997.16
2022-08-12T01:50:26.370Z,94999.34
2022-08-12T01:53:12.008Z,94995.94
2022-08-12T01:55:57.114Z,94995.88
2022-08-12T01:58:58.814Z,95000.13
2022-08-12T02:01:44.267Z,94994.81
2022-08-12T02:04:53.342Z,95004.03
2022-08-12T02:08:02.348Z,94998.81
2022-08-12T02:11:12.589Z,94995.97
2022-08-12T02:14:26.205Z,94992.78
2022-08-12T02:17:54.512Z,94990.19
2022-08-12T02:20:51.330Z,94992.28
2022-08-12T02:23:38.289Z,94995.34
2022-08-12T02:26:22.736Z,95000.56
2022-08-12T02:29:07.497Z,94990.63
2022-08-12T02:31:53.837Z,95002.25
2022-08-12T02:34:37.886Z,95003.00
2022-08-12T02:37:23.881Z,95003.00
2022-08-12T02:40:12.048Z,95000.63
2022-08-12T02:42:59.665Z,95004.25
2022-08-12T02:45:48.568Z,95002.16
2022-08-12T02:48:41.012Z,95001.06
2022-08-12T02:51:27.149Z,95005.78
2022-08-12T02:54:10.460Z,94997.34
2022-08-12T02:56:54.627Z,94994.22
2022-08-12T02:59:37.970Z,95003.22
2022-08-12T03:02:23.929Z,95007.97
2022-08-12T03:05:12.472Z,94997.97
2022-08-12T03:08:01.353Z,95007.69
2022-08-12T03:10:48.849Z,95002.72
2022-08-12T03:13:40.227Z,95003.25
2022-08-12T03:16:24.554Z,95007.97
2022-08-12T03:19:08.080Z,95006.41
2022-08-12T03:22:09.485Z,95001.66
2022-08-12T03:24:52.910Z,95004.09
2022-08-12T03:27:40.519Z,95013.53
2022-08-12T03:30:24.586Z,95016.94
2022-08-12T03:33:09.352Z,95014.56
2022-08-12T03:35:55.830Z,95022.75
2022-08-12T03:38:43.270Z,95021.16
2022-08-12T03:41:36.766Z,95015.41
2022-08-12T03:44:44.185Z,95013.78
2022-08-12T03:47:52.527Z,95024.06
2022-08-12T03:50:53.096Z,95022.22
2022-08-12T03:53:54.238Z,95017.16
2022-08-12T03:56:56.158Z,95021.38
2022-08-12T03:59:56.698Z,95033.75
2022-08-12T04:02:41.265Z,95026.44
2022-08-12T04:05:24.622Z,95020.69
2022-08-12T04:08:28.507Z,95023.84
2022-08-12T04:11:32.095Z,95035.22
2022-08-12T04:14:20.719Z,95028.97
2022-08-12T04:17:04.889Z,95028.22
2022-08-12T04:19:49.255Z,95031.38
2022-08-12T04:22:32.660Z,95022.94
2022-08-12T04:25:16.022Z,95041.94
2022-08-12T04:28:13.377Z,95031.91
2022-08-12T04:30:58.439Z,95031.13
2022-08-12T04:33:42.442Z,95033.03
2022-08-12T04:36:25.586Z,95028.03
2022-08-12T04:39:10.598Z,95034.13
2022-08-12T04:41:58.367Z,95026.72
2022-08-12T04:44:42.518Z,95027.78
2022-08-12T04:47:27.268Z,95023.03
2022-08-12T04:50:26.947Z,95021.50
2022-08-12T04:53:14.867Z,95013.88
2022-08-12T04:55:58.639Z,95015.75
2022-08-12T04:58:42.295Z,95019.13
2022-08-12T05:01:30.330Z,95020.72
2022-08-12T05:04:16.148Z,95015.72
2022-08-12T05:06:59.214Z,95016.75
2022-08-12T05:10:00.425Z,95014.41
2022-08-12T05:12:49.014Z,95016.78
2022-08-12T05:15:32.315Z,95026.75
2022-08-12T05:18:19.703Z,95032.53
2022-08-12T05:21:05.354Z,95029.31
2022-08-12T05:23:48.534Z,95030.41
2022-08-12T05:26:31.616Z,95025.41
2022-08-12T05:30:07.007Z,95033.84
2022-08-12T05:32:21.594Z,95042.00
2022-08-12T05:35:06.559Z,95037.00
2022-08-12T05:38:12.049Z,95041.69
2022-08-12T05:40:55.427Z,95030.88
2022-08-12T05:43:38.486Z,95031.91
2022-08-12T05:46:22.206Z,95036.13
2022-08-12T05:49:06.413Z,95036.41
2022-08-12T05:51:49.728Z,95047.69
2022-08-12T05:54:56.241Z,95040.81
2022-08-12T05:57:37.582Z,95043.41
2022-08-12T06:00:21.908Z,95041.31
2022-08-12T06:03:08.218Z,95046.00
2022-08-12T06:05:55.181Z,95041.75
2022-08-12T06:08:39.474Z,95043.28
2022-08-12T06:11:25.319Z,95041.91
2022-08-12T06:14:11.922Z,95040.59
2022-08-12T06:16:55.329Z,95048.09
2022-08-12T06:20:26.536Z,95045.16
2022-08-12T06:22:41.806Z,95046.13
2022-08-12T06:25:29.296Z,95041.31
2022-08-12T06:28:21.318Z,95047.63
2022-08-12T06:35:23.651Z,95050.28
2022-08-12T06:37:13.961Z,95046.81
2022-08-12T06:40:03.702Z,95051.47
2022-08-12T06:42:49.031Z,95052.56
2022-08-12T06:45:45.579Z,95046.47
2022-08-12T06:48:30.149Z,95042.94
2022-08-12T06:51:13.428Z,95039.09
2022-08-12T06:53:57.014Z,95038.34
2022-08-12T06:57:03.194Z,95038.34
2022-08-12T06:59:44.137Z,95035.84
2022-08-12T07:02:31.516Z,95037.16
2022-08-12T07:05:18.129Z,95040.03
2022-08-12T07:08:10.993Z,95034.34
2022-08-12T07:10:59.043Z,95034.28
2022-08-12T07:14:02.515Z,95033.13
2022-08-12T07:16:53.742Z,95032.88
2022-08-12T07:19:45.139Z,95040.78
2022-08-12T07:22:28.669Z,95039.34
2022-08-12T07:25:28.939Z,95039.50
2022-08-12T07:28:16.933Z,95043.28
2022-08-12T07:31:00.643Z,95040.16
2022-08-12T07:33:43.960Z,95029.53
2022-08-12T07:36:28.587Z,95032.69
2022-08-12T07:39:12.278Z,95031.94
2022-08-12T07:41:55.456Z,95037.25
2022-08-12T07:44:38.534Z,95032.50
2022-08-12T07:47:21.648Z,95019.56
2022-08-12T07:50:09.334Z,95023.16
2022-08-12T07:52:53.943Z,95014.47
2022-08-12T07:55:37.065Z,95011.91
2022-08-12T07:58:20.130Z,95009.44
2022-08-12T08:01:05.028Z,95007.25
2022-08-12T08:04:17.997Z,95009.03
2022-08-12T08:07:02.025Z,95009.69
2022-08-12T08:09:46.538Z,95006.56
2022-08-12T08:12:47.765Z,95010.63
2022-08-12T08:16:01.644Z,94998.34
2022-08-12T08:18:35.886Z,95008.91
2022-08-12T08:21:21.989Z,94996.94
2022-08-12T08:24:18.329Z,94998.50
2022-08-12T08:27:02.831Z,94993.88
2022-08-12T08:29:45.909Z,95002.09
2022-08-12T08:32:28.957Z,94989.84
2022-08-12T08:35:13.203Z,94991.69
2022-08-12T08:38:08.443Z,94986.81
2022-08-12T08:41:11.364Z,94984.19
2022-08-12T08:43:59.979Z,94984.97
2022-08-12T08:46:44.568Z,94983.44
2022-08-12T08:49:27.819Z,94976.78
2022-08-12T08:52:12.336Z,94983.38
2022-08-12T08:54:55.679Z,94976.38
2022-08-12T08:57:43.979Z,94964.72
2022-08-12T09:00:29.740Z,94967.13
2022-08-12T09:04:21.209Z,94967.59
2022-08-12T09:06:17.164Z,94972.91
2022-08-12T09:09:00.714Z,94960.22
2022-08-12T09:12:13.957Z,94961.56
2022-08-12T09:14:58.459Z,94965.22
2022-08-12T09:17:54.690Z,94955.44
2022-08-12T09:20:39.827Z,94959.84
2022-08-12T09:23:59.196Z,94956.13
2022-08-12T09:26:28.102Z,94953.44
2022-08-12T09:29:14.221Z,94952.31
2022-08-12T09:32:07.339Z,94959.16
2022-08-12T09:34:54.801Z,94948.78
2022-08-12T09:37:58.007Z,94947.50
2022-08-12T09:41:02.186Z,94937.81
2022-08-12T09:44:05.043Z,94941.75
2022-08-12T09:46:48.585Z,94946.38
2022-08-12T09:49:42.045Z,94941.28
2022-08-12T09:52:31.950Z,94939.97
2022-08-12T09:56:05.544Z,94941.75
2022-08-12T09:58:57.818Z,94931.84
2022-08-12T10:01:24.427Z,94934.88
2022-08-12T10:04:11.795Z,94935.75
2022-08-12T10:06:57.669Z,94931.44
2022-08-12T10:09:58.155Z,94936.91
2022-08-12T10:13:07.746Z,94931.66
2022-08-12T10:16:01.974Z,94921.47
2022-08-12T10:18:51.863Z,94916.59
2022-08-12T10:21:38.628Z,94909.75
2022-08-12T10:24:23.272Z,94910.34
2022-08-12T10:27:25.668Z,94914.38
2022-08-12T10:30:41.973Z,94907.44
2022-08-12T10:33:30.816Z,94895.56
2022-08-12T10:36:14.908Z,94890.47
2022-08-12T10:38:58.087Z,94896.38
2022-08-12T10:42:00.164Z,94897.16
2022-08-12T10:44:46.750Z,94889.53
2022-08-12T10:48:14.965Z,94885.44
2022-08-12T10:51:02.098Z,94884.47
2022-08-12T10:53:45.758Z,94891.34
2022-08-12T10:56:34.146Z,94881.41
2022-08-12T10:59:19.705Z,94883.16
2022-08-12T11:04:23.172Z,94882.09
2022-08-12T11:07:02.589Z,94871.84
2022-08-12T11:08:43.396Z,94872.41
2022-08-12T11:12:35.672Z,94868.88
2022-08-12T11:14:49.335Z,94877.84
2022-08-12T11:17:51.819Z,94861.03
2022-08-12T11:20:36.225Z,94867.53
2022-08-12T11:23:25.018Z,94865.47
2022-08-12T11:26:20.152Z,94868.00
2022-08-12T11:29:06.070Z,94871.09
2022-08-12T11:32:06.005Z,94857.91
2022-08-12T11:34:53.857Z,94859.84
2022-08-12T11:37:57.783Z,94855.09
2022-08-12T11:40:42.560Z,94848.78
2022-08-12T11:43:26.374Z,94858.38
2022-08-12T11:46:18.464Z,94854.91
2022-08-12T11:49:01.619Z,94852.75
2022-08-12T11:51:46.180Z,94853.25
2022-08-12T11:54:40.991Z,94858.38
2022-08-12T11:58:13.633Z,94849.56
2022-08-12T12:03:46.090Z,94853.22
2022-08-12T12:06:29.546Z,94865.94
2022-08-12T12:09:13.998Z,94862.75
2022-08-12T12:12:00.914Z,94865.09
2022-08-12T12:14:44.567Z,94866.97
2022-08-12T12:17:39.350Z,94860.00
2022-08-12T12:20:26.137Z,94865.66
2022-08-12T12:23:28.812Z,94873.16
2022-08-12T12:26:35.531Z,94866.84
2022-08-12T12:30:19.471Z,94856.19
2022-08-12T12:32:28.884Z,94853.91
2022-08-12T12:35:13.848Z,94857.13
2022-08-12T12:38:17.559Z,94846.94
2022-08-12T12:41:16.552Z,94844.00
2022-08-12T12:44:04.418Z,94835.66
2022-08-12T12:46:49.791Z,94843.28
2022-08-12T12:49:32.995Z,94848.94
2022-08-12T12:52:19.679Z,94851.34
2022-08-12T12:55:04.494Z,94847.56
2022-08-12T12:58:00.398Z,94857.31
2022-08-12T13:00:50.971Z,94844.81
2022-08-12T13:03:35.614Z,94845.72
2022-08-12T13:06:32.886Z,94850.13
2022-08-12T13:09:19.578Z,94842.28
2022-08-12T13:12:10.442Z,94845.88
2022-08-12T13:14:53.834Z,94833.22
2022-08-12T13:18:02.283Z,94835.44
2022-08-12T13:20:43.603Z,94829.78
2022-08-12T13:23:35.915Z,94829.47
2022-08-12T13:26:21.185Z,94840.69
2022-08-12T13:29:04.437Z,94835.28
2022-08-12T13:32:18.870Z,94829.06
2022-08-12T13:35:04.616Z,94839.03
2022-08-12T13:37:59.400Z,94847.16
2022-08-12T13:40:46.284Z,94838.09
2022-08-12T13:43:41.076Z,94839.72
2022-08-12T13:46:25.562Z,94838.94
2022-08-12T13:49:11.622Z,94844.03
2022-08-12T13:52:02.401Z,94835.84
2022-08-12T13:54:56.064Z,94850.38
2022-08-12T13:57:44.440Z,94827.09
2022-08-12T14:00:34.286Z,94839.31
2022-08-12T14:03:28.067Z,94831.13
2022-08-12T14:06:15.522Z,94847.63
2022-08-12T14:09:00.512Z,94837.66
2022-08-12T14:12:01.119Z,94845.91
2022-08-12T14:14:49.433Z,94837.41
2022-08-12T14:17:38.028Z,94848.84
2022-08-12T14:20:21.405Z,94838.25
2022-08-12T14:24:02.069Z,94834.88
2022-08-12T14:26:19.975Z,94826.44
2022-08-12T14:29:04.750Z,94839.97
2022-08-12T14:31:52.301Z,94831.25
2022-08-12T14:34:35.667Z,94845.69
2022-08-12T14:37:55.899Z,94822.28
2022-08-12T14:40:27.777Z,94819.66
2022-08-12T14:43:14.194Z,94823.25
2022-08-12T14:45:59.249Z,94818.88
2022-08-12T14:48:43.772Z,94807.88
2022-08-12T14:52:43.447Z,94814.59
2022-08-12T14:57:00.056Z,94802.34
2022-08-12T14:57:56.614Z,94805.97
2022-08-12T15:00:57.839Z,94804.53
2022-08-12T15:03:52.293Z,94802.53
2022-08-12T15:06:52.586Z,94797.84
2022-08-12T15:09:36.103Z,94793.03
2022-08-12T15:12:24.680Z,94803.97
2022-08-12T15:15:10.518Z,94797.69
2022-08-12T15:18:02.479Z,94796.31
2022-08-12T15:20:45.669Z,94787.88
2022-08-12T15:23:32.923Z,94778.81
2022-08-12T15:26:21.363Z,94775.97
2022-08-12T15:29:14.474Z,94773.97
2022-08-12T15:31:59.788Z,94773.50
2022-08-12T15:34:46.640Z,94769.88
2022-08-12T15:38:09.226Z,94766.91
2022-08-12T15:40:37.038Z,94759.41
2022-08-12T15:44:16.119Z,94761.75
2022-08-12T15:46:33.594Z,94764.69
2022-08-12T15:49:18.110Z,94754.84
2022-08-12T15:52:05.189Z,94764.66
2022-08-12T15:54:48.490Z,94762.13
2022-08-12T15:57:33.226Z,94766.84
2022-08-12T16:00:35.858Z,94765.88
2022-08-12T16:03:28.626Z,94763.56
2022-08-12T16:06:50.935Z,94766.63
2022-08-12T16:09:56.688Z,94770.69
2022-08-12T16:12:43.481Z,94767.38
2022-08-12T16:15:37.949Z,94765.22
2022-08-12T16:18:26.217Z,94766.75
2022-08-12T16:21:10.717Z,94751.16
2022-08-12T16:24:14.482Z,94760.19
2022-08-12T16:26:59.077Z,94751.78
2022-08-12T16:29:53.182Z,94755.66
2022-08-12T16:32:38.708Z,94758.66
2022-08-12T16:35:21.824Z,94759.06
2022-08-12T16:38:24.768Z,94755.97
2022-08-12T16:41:13.566Z,94760.47
2022-08-12T16:43:59.906Z,94762.47
2022-08-12T16:46:57.569Z,94765.09
2022-08-12T16:49:43.535Z,94764.34
2022-08-12T16:52:29.640Z,94758.59
2022-08-12T16:55:12.946Z,94768.84
2022-08-12T16:57:56.526Z,94773.66
2022-08-12T17:00:41.546Z,94760.22
2022-08-12T17:03:36.832Z,94770.34
2022-08-12T17:06:22.555Z,94762.22
2022-08-12T17:09:17.184Z,94767.75
2022-08-12T17:12:01.480Z,94759.41
2022-08-12T17:14:52.843Z,94758.13
2022-08-12T17:17:39.795Z,94759.72
2022-08-12T17:20:36.069Z,94764.88
2022-08-12T17:23:23.409Z,94772.31
2022-08-12T17:26:06.986Z,94773.69
2022-08-12T17:28:52.609Z,94770.00
2022-08-12T17:32:00.734Z,94776.91
2022-08-12T17:35:00.015Z,94775.94
2022-08-12T17:37:43.990Z,94777.94
2022-08-12T17:40:35.284Z,94777.47
2022-08-12T17:43:51.876Z,94772.47
2022-08-12T17:46:23.908Z,94772.06
2022-08-12T17:49:19.425Z,94777.69
2022-08-12T17:52:23.146Z,94777.41
2022-08-12T17:55:36.696Z,94786.50
2022-08-12T17:58:36.934Z,94780.22
2022-08-12T18:01:22.530Z,94780.16
2022-08-12T18:04:22.050Z,94783.66
2022-08-12T18:07:08.500Z,94791.69
2022-08-12T18:09:54.235Z,94795.13
2022-08-12T18:12:42.849Z,94784.06
2022-08-12T18:16:05.178Z,94804.88
2022-08-12T18:18:39.323Z,94801.84
2022-08-12T18:21:25.733Z,94797.72
2022-08-12T18:24:22.065Z,94800.47
2022-08-12T18:27:27.232Z,94804.38
2022-08-12T18:30:12.111Z,94793.69
2022-08-12T18:33:03.535Z,94797.91
2022-08-12T18:35:53.613Z,94797.47
2022-08-12T18:38:37.293Z,94793.34
2022-08-12T18:41:34.579Z,94792.94
2022-08-12T18:44:19.525Z,94787.06
2022-08-12T18:49:48.396Z,94794.56
2022-08-12T18:52:35.570Z,94795.56
2022-08-12T18:55:18.938Z,94804.16
2022-08-12T18:58:07.952Z,94803.66
2022-08-12T19:00:55.701Z,94806.66
2022-08-12T19:03:40.225Z,94811.31
2022-08-12T19:06:24.782Z,94810.63
2022-08-12T19:09:14.639Z,94806.91
2022-08-12T19:12:15.057Z,94806.91
2022-08-12T19:15:07.839Z,94807.47
2022-08-12T19:18:00.532Z,94812.56
2022-08-12T19:20:48.025Z,94815.75
2022-08-12T19:23:34.930Z,94812.09
2022-08-12T19:26:19.616Z,94814.91
2022-08-12T19:29:10.786Z,94819.31
2022-08-12T19:31:58.978Z,94811.47
2022-08-12T19:35:54.154Z,94812.88
2022-08-12T19:38:06.880Z,94821.06
2022-08-12T19:40:50.804Z,94817.88
2022-08-12T19:43:59.228Z,94815.50
2022-08-12T19:46:42.517Z,94814.72
2022-08-12T19:49:36.054Z,94810.22
2022-08-12T19:52:21.794Z,94808.66
2022-08-12T19:55:11.383Z,94803.38
2022-08-12T19:58:04.768Z,94799.69
2022-08-12T20:00:52.578Z,94806.53
2022-08-12T20:03:39.114Z,94808.09
2022-08-12T20:06:27.691Z,94811.53
2022-08-12T20:09:16.598Z,94807.19
2022-08-12T20:12:11.962Z,94793.38
2022-08-12T20:15:05.193Z,94804.03
2022-08-12T20:17:51.047Z,94799.38
2022-08-12T20:20:35.413Z,94802.28
2022-08-12T20:23:24.364Z,94798.66
2022-08-12T20:26:28.965Z,94791.38
2022-08-12T20:29:14.160Z,94792.84
2022-08-12T20:32:00.650Z,94797.81
2022-08-12T20:34:44.355Z,94792.53
2022-08-12T20:38:07.261Z,94793.53
2022-08-12T20:40:33.201Z,94792.47
2022-08-12T20:43:23.204Z,94794.06
2022-08-12T20:46:12.007Z,94789.59
2022-08-12T20:48:57.634Z,94794.94
2022-08-12T20:51:55.010Z,94789.66
2022-08-12T20:54:40.497Z,94779.94
2022-08-12T20:57:24.002Z,94780.47
2022-08-12T21:00:18.126Z,94784.19
2022-08-12T21:03:19.597Z,94780.38
2022-08-12T21:06:19.897Z,94784.56
2022-08-12T21:09:07.389Z,94791.09
2022-08-12T21:11:53.267Z,94791.72
2022-08-12T21:14:39.881Z,94786.06
2022-08-12T21:18:08.616Z,94790.53
2022-08-12T21:20:44.556Z,94786.47
2022-08-12T21:23:31.070Z,94788.69
2022-08-12T21:26:20.387Z,94793.00
2022-08-12T21:29:04.225Z,94785.69
2022-08-12T21:32:39.614Z,94793.59
2022-08-12T21:34:52.667Z,94796.69
2022-08-12T21:37:37.760Z,94793.06
2022-08-12T21:40:32.341Z,94775.16
2022-08-12T21:43:21.116Z,94783.13
2022-08-12T21:46:04.433Z,94783.16
2022-08-12T21:48:48.541Z,94787.94
2022-08-12T21:51:49.827Z,94773.13
2022-08-12T21:54:37.578Z,94773.84
2022-08-12T21:57:22.076Z,94784.56
2022-08-12T22:00:16.861Z,94770.47
2022-08-12T22:04:10.797Z,94766.44
2022-08-12T22:06:42.865Z,94766.66
2022-08-12T22:09:30.334Z,94760.25
2022-08-12T22:12:37.651Z,94763.41
2022-08-12T22:15:22.078Z,94763.91
2022-08-12T22:18:07.481Z,94758.13
2022-08-12T22:20:54.691Z,94759.78
2022-08-12T22:24:04.067Z,94756.81
2022-08-12T22:26:43.556Z,94746.59
2022-08-12T22:29:44.447Z,94746.69
2022-08-12T22:32:30.117Z,94742.16
2022-08-12T22:35:55.346Z,94743.91
2022-08-12T22:38:36.929Z,94746.25
2022-08-12T22:41:42.511Z,94740.75
2022-08-12T22:44:59.269Z,94741.59
2022-08-12T22:47:54.110Z,94749.59
2022-08-12T22:50:39.076Z,94744.56
2022-08-12T22:53:22.406Z,94739.84
2022-08-12T22:56:08.176Z,94739.41
2022-08-12T22:58:55.648Z,94738.09
2022-08-12T23:02:00.953Z,94733.81
2022-08-12T23:04:45.242Z,94737.66
2022-08-12T23:07:36.417Z,94744.13
2022-08-12T23:10:32.933Z,94737.56
2022-08-12T23:13:43.407Z,94742.56
2022-08-12T23:16:31.643Z,94734.94
2022-08-12T23:19:23.337Z,94734.34
2022-08-12T23:23:05.733Z,94731.00
2022-08-12T23:25:21.109Z,94733.88
2022-08-12T23:28:30.233Z,94725.72
2022-08-12T23:31:14.353Z,94718.09
2022-08-12T23:34:00.600Z,94724.13
2022-08-12T23:36:48.570Z,94711.06
2022-08-12T23:40:14.204Z,94717.91
2022-08-12T23:42:36.775Z,94716.59
2022-08-12T23:45:31.577Z,94711.41
2022-08-12T23:48:23.250Z,94716.09
2022-08-12T23:51:22.481Z,94711.44
2022-08-12T23:54:10.499Z,94704.22
2022-08-12T23:57:16.785Z,94706.13
